Time;durP1;ratioP1;P1;durP2;ratioP2;P2;SDS_P1;SDS_P2;PMS_P1;PMS_P2;Temp;Humidity;BMP_temperature;BMP_pressure;BME280_temperature;BME280_humidity;BME280_pressure;Samples;Min_cycle;Max_cycle;Signal;HPM_P1;HPM_P2
2023/07/27 00:00:29;;;;;;;2.30;0.50;;;;;;;22.96;51.08;100665.81;4916395;29;20048;-79
2023/07/27 00:02:57;;;;;;;1.58;0.40;;;;;;;22.82;51.33;100669.91;4916954;29;20052;-78
2023/07/27 00:05:25;;;;;;;0.47;0.47;;;;;;;22.84;51.35;100671.50;4916916;29;20048;-78
2023/07/27 00:07:53;;;;;;;0.30;0.20;;;;;;;22.99;51.25;100672.66;4916596;29;20516;-78
2023/07/27 00:10:24;;;;;;;0.40;0.40;;;;;;;22.82;50.42;100671.88;4915997;29;20060;-78
2023/07/27 00:12:51;;;;;;;0.40;0.40;;;;;;;22.90;50.80;100690.41;4917173;29;20129;-78
2023/07/27 00:15:20;;;;;;;0.68;0.60;;;;;;;22.89;49.94;100690.78;4916739;29;20052;-78
2023/07/27 00:17:48;;;;;;;0.57;0.55;;;;;;;22.77;50.32;100694.50;4916991;29;20055;-78
2023/07/27 00:20:16;;;;;;;0.60;0.40;;;;;;;22.83;51.20;100701.41;4916484;29;20396;-78
2023/07/27 00:22:44;;;;;;;1.08;0.65;;;;;;;22.73;49.83;100693.59;4914949;29;20056;-78
2023/07/27 00:25:12;;;;;;;0.80;0.43;;;;;;;22.88;51.26;100698.31;4916060;29;20078;-79
2023/07/27 00:27:40;;;;;;;1.15;0.57;;;;;;;22.78;51.11;100696.91;4916793;29;20052;-80
2023/07/27 00:30:08;;;;;;;1.10;0.40;;;;;;;22.82;50.48;100700.59;4899994;29;20052;-80
2023/07/27 00:32:36;;;;;;;0.65;0.43;;;;;;;22.79;50.06;100698.50;4915997;29;20052;-79
2023/07/27 00:35:05;;;;;;;0.25;0.25;;;;;;;22.75;50.52;100700.41;4916774;29;20051;-78
2023/07/27 00:37:33;;;;;;;0.80;0.38;;;;;;;22.78;50.63;100701.69;4916022;29;20504;-79
2023/07/27 00:40:01;;;;;;;0.90;0.52;;;;;;;22.64;50.71;100708.50;4915871;29;20056;-79
2023/07/27 00:42:30;;;;;;;1.10;0.45;;;;;;;22.53;50.74;100699.88;4916393;29;20052;-78
2023/07/27 00:44:58;;;;;;;2.13;0.77;;;;;;;22.61;50.97;100712.03;4916172;29;20484;-79
2023/07/27 00:47:26;;;;;;;0.57;0.25;;;;;;;22.53;50.94;100708.25;4892679;29;20063;-79
2023/07/27 00:49:54;;;;;;;0.50;0.47;;;;;;;22.55;51.05;100708.69;4916257;29;20071;-81
2023/07/27 00:52:23;;;;;;;0.63;0.40;;;;;;;22.55;51.40;100708.69;4899230;29;20519;-79
2023/07/27 00:54:54;;;;;;;0.65;0.40;;;;;;;22.57;51.08;100704.75;4916459;29;20051;-79
2023/07/27 00:57:22;;;;;;;0.32;0.32;;;;;;;22.64;50.65;100710.50;4916003;29;20071;-79
2023/07/27 00:59:51;;;;;;;0.93;0.40;;;;;;;22.50;51.58;100716.50;4916432;29;20067;-79
2023/07/27 01:02:19;;;;;;;0.70;0.40;;;;;;;22.51;51.14;100718.09;4899096;29;20048;-78
2023/07/27 01:04:47;;;;;;;0.57;0.57;;;;;;;22.53;51.01;100722.19;4914341;29;20060;-79
2023/07/27 01:07:16;;;;;;;1.35;0.50;;;;;;;22.55;51.22;100717.06;4915379;29;20125;-78
2023/07/27 01:09:44;;;;;;;1.23;0.30;;;;;;;22.52;50.31;100709.41;4915084;29;20492;-79
2023/07/27 01:12:39;;;;;;;0.20;0.20;;;;;;;22.42;51.15;100709.91;4915180;29;20051;-79
2023/07/27 01:15:17;;;;;;;0.68;0.50;;;;;;;22.51;51.13;100712.53;4892850;29;20059;-79
2023/07/27 01:17:56;;;;;;;1.02;0.38;;;;;;;22.44;49.98;100701.19;4916445;29;20051;-79
2023/07/27 01:20:46;;;;;;;0.65;0.30;;;;;;;22.37;50.18;100702.63;4899246;29;20063;-79
2023/07/27 01:23:33;;;;;;;0.28;0.25;;;;;;;22.37;50.54;100704.59;4915533;29;20060;-80
2023/07/27 01:26:34;;;;;;;0.77;0.30;;;;;;;22.40;50.71;100707.47;4898506;29;20055;-79
2023/07/27 01:29:15;;;;;;;2.30;0.47;;;;;;;22.49;50.71;100710.09;4916024;29;20059;-80
2023/07/27 01:31:44;;;;;;;0.40;0.30;;;;;;;22.47;49.43;100711.63;4915899;29;20063;-79
2023/07/27 01:34:21;;;;;;;0.82;0.40;;;;;;;22.41;50.52;100713.88;4916307;29;20060;-79
2023/07/27 01:36:55;;;;;;;0.17;0.17;;;;;;;22.37;50.43;100704.59;4920059;29;20422;-79
2023/07/27 01:39:25;;;;;;;1.13;0.40;;;;;;;22.37;50.71;100704.59;4919927;29;20052;-79
2023/07/27 01:41:54;;;;;;;0.32;0.30;;;;;;;22.38;49.80;100712.59;4919732;29;20059;-79
2023/07/27 01:44:28;;;;;;;0.40;0.40;;;;;;;22.34;50.14;100711.69;4919031;29;20056;-79
2023/07/27 01:46:58;;;;;;;0.40;0.40;;;;;;;22.39;48.76;100713.44;4918754;29;20048;-79
2023/07/27 01:49:27;;;;;;;0.55;0.50;;;;;;;22.36;49.15;100716.91;4902430;29;20078;-79
2023/07/27 01:51:58;;;;;;;0.30;0.28;;;;;;;22.39;49.97;100700.28;4919762;29;20044;-80
2023/07/27 01:54:27;;;;;;;0.20;0.20;;;;;;;22.35;49.80;100704.16;4902682;29;20052;-79
2023/07/27 01:56:56;;;;;;;0.77;0.50;;;;;;;22.39;49.38;100699.50;4902135;29;20056;-80
2023/07/27 01:59:25;;;;;;;0.85;0.20;;;;;;;22.45;49.39;100705.59;4919619;29;20048;-80
2023/07/27 02:01:53;;;;;;;0.90;0.32;;;;;;;22.28;49.12;100711.16;4902011;29;20504;-79
2023/07/27 02:04:23;;;;;;;1.15;0.50;;;;;;;22.39;49.29;100710.66;4902098;29;20056;-80
2023/07/27 02:06:51;;;;;;;0.40;0.40;;;;;;;22.41;48.93;100708.28;4901582;29;20151;-79
2023/07/27 02:09:23;;;;;;;0.70;0.30;;;;;;;22.25;49.17;100706.28;4902309;29;20052;-80
2023/07/27 02:12:00;;;;;;;0.60;0.20;;;;;;;22.32;49.76;100710.44;4917005;29;20063;-79
2023/07/27 02:15:01;;;;;;;0.90;0.45;;;;;;;22.29;48.80;100712.78;4918229;29;20063;-79
2023/07/27 02:17:39;;;;;;;0.22;0.17;;;;;;;22.27;49.13;100709.53;4901853;29;20052;-79
2023/07/27 02:20:12;;;;;;;0.40;0.25;;;;;;;22.18;49.65;100708.09;4918494;29;20060;-80
2023/07/27 02:22:42;;;;;;;0.75;0.38;;;;;;;22.04;49.71;100702.94;4918769;29;20056;-78
2023/07/27 02:25:11;;;;;;;0.28;0.28;;;;;;;22.07;50.38;100713.34;4901600;29;20056;-80
2023/07/27 02:27:39;;;;;;;0.95;0.68;;;;;;;22.00;50.36;100700.84;4918060;29;20059;-80
2023/07/27 02:30:07;;;;;;;0.20;0.20;;;;;;;22.12;50.65;100708.34;4901648;29;20403;-78
2023/07/27 02:32:35;;;;;;;0.20;0.20;;;;;;;22.11;50.47;100700.34;4901728;29;20621;-80
2023/07/27 02:35:04;;;;;;;1.00;0.43;;;;;;;22.10;50.56;100698.72;4901682;29;20071;-79
2023/07/27 02:37:32;;;;;;;1.20;0.50;;;;;;;22.11;51.86;100701.16;4901151;29;20051;-79
2023/07/27 02:40:00;;;;;;;0.30;0.30;;;;;;;22.14;52.01;100694.84;4901384;29;20075;-79
2023/07/27 02:42:29;;;;;;;1.48;0.75;;;;;;;22.31;51.89;100692.09;4901484;29;20055;-79
2023/07/27 02:44:56;;;;;;;2.40;0.60;;;;;;;22.29;52.10;100700.84;4918776;29;20044;-80
2023/07/27 02:47:26;;;;;;;5.88;0.90;;;;;;;22.24;51.95;100703.88;4900118;29;20408;-81
2023/07/27 02:49:54;;;;;;;2.03;0.70;;;;;;;22.20;51.68;100691.81;4901706;29;20408;-79
2023/07/27 02:52:22;;;;;;;1.27;0.70;;;;;;;22.20;52.35;100698.22;4901513;29;20055;-79
2023/07/27 02:54:50;;;;;;;1.65;0.50;;;;;;;22.11;52.94;100701.16;4918754;29;20052;-79
2023/07/27 02:57:19;;;;;;;0.50;0.50;;;;;;;22.21;52.34;100710.16;4901070;29;20052;-80
2023/07/27 02:59:51;;;;;;;0.82;0.40;;;;;;;22.23;52.13;100711.41;4902427;29;20055;-79
2023/07/27 03:02:19;;;;;;;1.52;0.40;;;;;;;22.26;52.45;100721.03;4916532;29;20492;-79
2023/07/27 03:04:47;;;;;;;0.30;0.30;;;;;;;22.25;52.03;100717.44;4916852;29;20412;-80
2023/07/27 03:07:15;;;;;;;0.52;0.52;;;;;;;22.18;52.97;100716.47;4916547;29;20068;-79
2023/07/27 03:09:43;;;;;;;0.68;0.50;;;;;;;22.08;53.13;100718.59;4917903;29;20381;-79
2023/07/27 03:12:12;;;;;;;0.95;0.55;;;;;;;22.00;53.36;100708.41;4918298;29;20052;-80
2023/07/27 03:14:40;;;;;;;0.93;0.55;;;;;;;21.94;53.34;100720.97;4917874;29;20510;-79
2023/07/27 03:17:08;;;;;;;1.10;0.77;;;;;;;21.68;54.53;100728.56;4916428;29;20385;-80
2023/07/27 03:19:36;;;;;;;2.25;0.60;;;;;;;21.77;54.13;100725.69;4917735;29;20415;-79
2023/07/27 03:22:05;;;;;;;0.60;0.57;;;;;;;21.81;53.76;100729.38;4917488;29;20059;-79
2023/07/27 03:24:33;;;;;;;2.00;0.60;;;;;;;21.92;53.15;100726.06;4917383;29;20056;-79
2023/07/27 03:27:01;;;;;;;1.50;0.75;;;;;;;21.81;54.05;100729.38;4908831;29;20386;-78
2023/07/27 03:29:30;;;;;;;1.60;0.70;;;;;;;21.78;54.29;100726.47;4909760;29;20056;-78
2023/07/27 03:31:57;;;;;;;1.25;0.73;;;;;;;21.73;53.92;100736.72;4881843;29;20076;-79
2023/07/27 03:34:26;;;;;;;1.20;0.73;;;;;;;21.60;55.56;100732.28;4897998;29;20064;-78
2023/07/27 03:36:54;;;;;;;1.00;0.50;;;;;;;21.48;55.24;100733.97;4897092;29;20388;-78
2023/07/27 03:39:21;;;;;;;0.40;0.40;;;;;;;21.59;55.32;100737.06;4897378;29;20059;-79
2023/07/27 03:41:49;;;;;;;0.43;0.43;;;;;;;21.57;55.47;100739.41;4897620;29;20048;-79
2023/07/27 03:44:17;;;;;;;1.95;0.52;;;;;;;21.60;55.25;100741.47;4897288;29;20052;-79
2023/07/27 03:46:45;;;;;;;0.95;0.57;;;;;;;21.51;54.65;100740.00;4897506;29;20060;-79
2023/07/27 03:49:13;;;;;;;2.95;0.40;;;;;;;21.59;56.10;100741.81;4896856;29;20053;-80
2023/07/27 03:51:41;;;;;;;0.50;0.50;;;;;;;21.54;55.87;100745.66;4896301;29;20056;-79
2023/07/27 03:54:09;;;;;;;1.58;0.65;;;;;;;21.61;56.60;100745.06;4898666;29;20052;-79
2023/07/27 03:56:38;;;;;;;0.75;0.57;;;;;;;21.45;56.54;100751.38;4897083;29;20527;-80
2023/07/27 03:59:06;;;;;;;2.60;0.70;;;;;;;21.43;56.80;100756.47;4896613;29;20056;-79
2023/07/27 04:01:34;;;;;;;1.48;0.52;;;;;;;21.47;57.16;100754.59;4897763;29;20076;-79
2023/07/27 04:04:02;;;;;;;2.88;0.50;;;;;;;21.39;58.74;100754.72;4897127;29;20049;-78
2023/07/27 04:06:30;;;;;;;0.75;0.50;;;;;;;21.19;58.74;100769.25;4897663;29;20057;-78
2023/07/27 04:08:59;;;;;;;0.57;0.50;;;;;;;21.32;58.83;100763.69;4896577;29;20055;-78
2023/07/27 04:11:26;;;;;;;0.63;0.55;;;;;;;21.45;58.95;100747.75;4897352;29;20083;-77
2023/07/27 04:13:54;;;;;;;1.10;0.60;;;;;;;21.36;58.54;100759.03;4897411;29;20048;-78
2023/07/27 04:16:22;;;;;;;2.70;0.73;;;;;;;21.32;58.94;100758.13;4881278;29;20059;-78
2023/07/27 04:18:50;;;;;;;1.45;0.90;;;;;;;21.55;58.34;100758.41;4898410;29;20072;-78
2023/07/27 04:21:18;;;;;;;0.80;0.55;;;;;;;21.47;58.23;100767.72;4896104;29;20056;-77
2023/07/27 04:23:46;;;;;;;2.03;0.80;;;;;;;21.38;58.89;100759.50;4896303;29;20412;-78
2023/07/27 04:26:14;;;;;;;0.40;0.40;;;;;;;21.34;58.79;100759.38;4896828;29;20493;-77
2023/07/27 04:28:42;;;;;;;1.00;0.63;;;;;;;21.56;57.86;100767.59;4896312;29;20492;-78
2023/07/27 04:31:10;;;;;;;0.85;0.57;;;;;;;21.67;57.53;100768.72;4897252;29;20059;-78
2023/07/27 04:33:38;;;;;;;0.98;0.30;;;;;;;21.54;57.25;100758.75;4897236;29;20053;-77
2023/07/27 04:36:06;;;;;;;0.65;0.38;;;;;;;21.48;57.93;100772.94;4897891;29;20044;-78
2023/07/27 04:38:34;;;;;;;4.45;0.73;;;;;;;21.40;58.47;100775.84;4897856;29;20059;-77
2023/07/27 04:41:02;;;;;;;0.63;0.50;;;;;;;21.48;59.08;100786.88;4897262;29;20060;-78
2023/07/27 04:43:30;;;;;;;0.60;0.40;;;;;;;21.52;60.78;100783.38;4896714;29;20056;-77
2023/07/27 04:45:57;;;;;;;0.63;0.35;;;;;;;21.47;61.49;100793.56;4897670;29;20064;-77
2023/07/27 04:48:25;;;;;;;1.95;0.90;;;;;;;21.50;61.61;100792.06;4896835;29;20072;-78
2023/07/27 04:50:54;;;;;;;1.55;1.27;;;;;;;21.68;60.76;100795.41;4898656;29;20048;-78
2023/07/27 04:53:22;;;;;;;1.70;1.30;;;;;;;21.55;61.01;100796.59;4896915;29;20052;-78
2023/07/27 04:55:50;;;;;;;3.80;1.73;;;;;;;21.50;60.30;100794.84;4916132;29;20056;-77
2023/07/27 04:58:18;;;;;;;1.88;1.17;;;;;;;21.37;62.76;100799.63;4911796;29;20107;-77
2023/07/27 05:00:52;;;;;;;1.35;1.10;;;;;;;21.52;61.89;100791.72;4913714;29;20061;-78
2023/07/27 05:03:20;;;;;;;2.15;1.05;;;;;;;21.44;62.26;100801.81;4914908;29;20040;-78
2023/07/27 05:05:48;;;;;;;1.42;1.00;;;;;;;21.53;61.84;100790.56;4915352;29;20048;-78
2023/07/27 05:08:16;;;;;;;1.63;0.98;;;;;;;21.47;62.73;100795.56;4915609;29;20056;-77
2023/07/27 05:10:44;;;;;;;2.25;1.33;;;;;;;;;;4914838;29;20055;-77
2023/07/27 05:13:12;;;;;;;1.10;0.77;;;;;;;21.57;62.48;100800.66;4916182;29;20055;-77
2023/07/27 05:15:41;;;;;;;2.88;0.70;;;;;;;21.58;63.90;100804.25;4897332;29;20037;-77
2023/07/27 05:18:09;;;;;;;1.48;1.00;;;;;;;21.59;64.99;100808.63;4912910;29;20427;-75
2023/07/27 05:20:37;;;;;;;1.10;1.00;;;;;;;21.52;64.26;100800.91;4915874;29;20071;-77
2023/07/27 05:23:04;;;;;;;0.95;0.55;;;;;;;21.51;66.13;100790.09;4915128;29;21623;-76
2023/07/27 05:25:32;;;;;;;1.20;1.02;;;;;;;21.49;64.35;100796.00;4915648;29;20043;-76
2023/07/27 05:28:00;;;;;;;1.70;0.90;;;;;;;21.66;64.06;100792.19;4916082;29;20047;-77
2023/07/27 05:30:28;;;;;;;3.35;0.93;;;;;;;21.64;63.81;100797.28;4915054;29;20044;-77
2023/07/27 05:32:56;;;;;;;2.35;0.80;;;;;;;21.47;64.09;100796.34;4914613;29;20059;-77
2023/07/27 05:35:24;;;;;;;1.88;0.90;;;;;;;21.54;64.06;100789.38;4898748;29;20055;-77
2023/07/27 05:37:52;;;;;;;3.33;1.00;;;;;;;21.73;65.16;100792.41;4913847;29;20059;-77
2023/07/27 05:40:20;;;;;;;1.23;1.00;;;;;;;21.95;64.08;100790.25;4926096;29;20063;-77
2023/07/27 05:42:48;;;;;;;2.08;0.50;;;;;;;22.00;63.02;100789.22;4924373;29;20055;-77
2023/07/27 05:45:16;;;;;;;3.63;0.80;;;;;;;21.98;62.42;100800.72;4915091;29;20063;-77
2023/07/27 05:47:44;;;;;;;2.42;0.70;;;;;;;22.00;61.36;100795.56;4914536;29;20048;-76
2023/07/27 05:50:12;;;;;;;3.42;0.82;;;;;;;21.93;61.48;100794.56;4912655;29;20068;-76
2023/07/27 05:52:40;;;;;;;2.75;0.85;;;;;;;21.84;61.77;100798.31;4914053;29;20059;-77
2023/07/27 05:55:08;;;;;;;0.70;0.70;;;;;;;21.85;61.52;100793.56;4915808;29;20048;-77
2023/07/27 05:57:36;;;;;;;1.73;0.90;;;;;;;21.85;63.38;100797.13;4914529;29;20071;-77
2023/07/27 06:00:06;;;;;;;1.08;0.90;;;;;;;21.77;63.28;100805.63;4913645;29;20052;-76
2023/07/27 06:02:35;;;;;;;1.40;0.90;;;;;;;21.93;63.15;100802.91;4914949;29;20063;-76
2023/07/27 06:05:04;;;;;;;1.48;0.70;;;;;;;22.02;62.49;100809.16;4913043;29;20083;-76
2023/07/27 06:07:33;;;;;;;2.67;1.08;;;;;;;22.13;63.27;100810.28;4915340;29;20060;-77
2023/07/27 06:10:01;;;;;;;1.33;0.80;;;;;;;22.35;61.79;100808.13;4898927;29;20055;-77
2023/07/27 06:12:29;;;;;;;1.95;1.38;;;;;;;22.49;62.01;100804.91;4905530;29;20064;-77
2023/07/27 06:14:58;;;;;;;1.63;0.80;;;;;;;22.76;61.48;100810.84;4904451;29;20052;-77
2023/07/27 06:17:29;;;;;;;1.52;1.02;;;;;;;22.92;61.66;100819.22;4910753;29;20064;-77
2023/07/27 06:20:05;;;;;;;2.20;0.73;;;;;;;22.92;61.82;100810.84;4908632;29;20419;-77
2023/07/27 06:22:33;;;;;;;1.60;0.90;;;;;;;23.08;60.56;100808.03;4916948;29;20064;-76
2023/07/27 06:25:02;;;;;;;1.92;0.90;;;;;;;23.02;58.30;100817.84;4915661;29;20067;-78
2023/07/27 06:27:30;;;;;;;3.22;0.80;;;;;;;22.94;58.70;100825.22;4914803;29;20388;-76
2023/07/27 06:29:59;;;;;;;1.50;0.80;;;;;;;23.25;56.71;100822.81;4913226;29;20055;-78
2023/07/27 06:32:28;;;;;;;0.60;0.60;;;;;;;23.49;55.93;100821.81;4918188;29;20067;-77
2023/07/27 06:34:56;;;;;;;3.38;0.85;;;;;;;23.65;55.97;100809.00;4914850;29;20041;-77
2023/07/27 06:37:24;;;;;;;2.28;0.50;;;;;;;23.70;56.56;100809.50;4913166;29;20102;-77
2023/07/27 06:39:54;;;;;;;1.50;0.70;;;;;;;23.68;53.83;100811.88;4914809;29;20056;-77
2023/07/27 06:42:22;;;;;;;3.17;0.75;;;;;;;23.79;54.18;100806.50;4914150;29;20063;-77
2023/07/27 06:44:50;;;;;;;1.30;0.85;;;;;;;23.81;53.92;100801.38;4917194;29;20056;-78
2023/07/27 06:47:19;;;;;;;1.30;0.70;;;;;;;23.94;53.59;100801.25;4917784;29;20075;-77
2023/07/27 06:49:48;;;;;;;3.05;0.65;;;;;;;24.06;51.14;100798.31;4913430;29;20079;-76
2023/07/27 06:52:16;;;;;;;2.40;0.63;;;;;;;24.21;50.68;100807.00;4917984;29;20164;-78
2023/07/27 06:54:44;;;;;;;1.10;0.73;;;;;;;24.26;47.39;100813.13;4918256;29;20040;-78
2023/07/27 06:57:13;;;;;;;1.30;0.50;;;;;;;24.35;48.17;100810.09;4916910;29;20059;-77
2023/07/27 06:59:42;;;;;;;2.53;0.55;;;;;;;24.51;48.31;100817.56;4918187;29;20059;-78
2023/07/27 07:02:11;;;;;;;0.40;0.40;;;;;;;24.52;48.12;100822.78;4918294;29;20048;-78
2023/07/27 07:04:39;;;;;;;2.28;0.70;;;;;;;24.46;47.14;100813.09;4917975;29;20051;-78
2023/07/27 07:07:08;;;;;;;0.93;0.40;;;;;;;24.55;46.98;100818.44;4918054;29;20052;-78
2023/07/27 07:09:36;;;;;;;0.50;0.40;;;;;;;24.57;47.91;100824.47;4918309;29;20048;-78
2023/07/27 07:12:05;;;;;;;1.25;0.68;;;;;;;24.57;47.98;100816.06;4919130;29;20051;-77
2023/07/27 07:14:34;;;;;;;1.70;0.63;;;;;;;24.65;47.65;100812.25;4922011;29;20068;-78
2023/07/27 07:17:02;;;;;;;2.33;0.50;;;;;;;24.70;46.63;100825.91;4921455;29;20055;-77
2023/07/27 07:19:31;;;;;;;0.30;0.30;;;;;;;24.61;46.93;100824.53;4920248;29;20051;-77
2023/07/27 07:21:59;;;;;;;0.73;0.30;;;;;;;24.68;47.99;100833.88;4918227;29;20075;-77
2023/07/27 07:24:27;;;;;;;0.80;0.57;;;;;;;24.68;46.79;100833.88;4918297;29;20420;-77
2023/07/27 07:26:56;;;;;;;1.35;0.50;;;;;;;24.62;46.10;100832.56;4917409;29;20063;-78
2023/07/27 07:29:24;;;;;;;1.20;0.50;;;;;;;24.70;47.38;100830.72;4917765;29;20056;-77
2023/07/27 07:31:53;;;;;;;0.32;0.32;;;;;;;24.74;47.99;100830.78;4916312;29;20411;-77
2023/07/27 07:34:21;;;;;;;0.73;0.45;;;;;;;24.77;46.24;100841.22;4916464;29;20048;-77
2023/07/27 07:36:50;;;;;;;0.57;0.57;;;;;;;24.84;47.12;100835.81;4917651;29;20381;-77
2023/07/27 07:39:18;;;;;;;0.55;0.55;;;;;;;24.69;44.62;100835.50;4917158;29;20360;-77
2023/07/27 07:41:47;;;;;;;1.45;0.30;;;;;;;24.73;46.62;100841.16;4916919;29;20071;-77
2023/07/27 07:44:15;;;;;;;0.75;0.60;;;;;;;24.89;46.75;100838.28;4916534;29;20056;-77
2023/07/27 07:46:43;;;;;;;0.93;0.55;;;;;;;24.81;45.33;100850.53;4916704;29;20052;-77
2023/07/27 07:49:12;;;;;;;2.90;0.73;;;;;;;25.01;45.99;100851.28;4916303;29;20048;-77
2023/07/27 07:51:40;;;;;;;0.60;0.60;;;;;;;25.02;46.22;100846.50;4916585;29;20056;-77
2023/07/27 07:54:09;;;;;;;1.08;0.47;;;;;;;25.06;45.39;100847.34;4916056;29;20063;-76
2023/07/27 07:56:38;;;;;;;1.05;0.52;;;;;;;25.01;45.32;100851.28;4916779;29;20053;-77
2023/07/27 07:59:06;;;;;;;0.30;0.30;;;;;;;25.07;44.20;100849.00;4916879;29;20502;-78
2023/07/27 08:01:35;;;;;;;0.50;0.32;;;;;;;25.17;44.53;100853.94;4916367;29;20380;-76
2023/07/27 08:04:04;;;;;;;2.65;0.75;;;;;;;25.25;44.35;100843.69;4912387;29;20059;-76
2023/07/27 08:06:33;;;;;;;1.13;0.50;;;;;;;25.21;44.01;100849.22;4916757;29;20063;-77
2023/07/27 08:09:02;;;;;;;0.28;0.28;;;;;;;25.18;44.55;100843.56;4900056;29;20055;-77
2023/07/27 08:11:31;;;;;;;2.65;0.75;;;;;;;25.16;43.34;100841.13;4916718;29;20051;-78
2023/07/27 08:14:02;;;;;;;1.08;0.40;;;;;;;25.30;44.41;100848.97;4869405;29;20067;-78
2023/07/27 08:16:30;;;;;;;2.38;0.52;;;;;;;25.33;43.09;100850.22;4917588;29;20074;-77
2023/07/27 08:19:00;;;;;;;1.17;0.70;;;;;;;25.24;44.56;100847.66;4916977;29;20056;-76
2023/07/27 08:21:28;;;;;;;1.40;0.30;;;;;;;25.18;43.04;100851.97;4916801;29;20059;-77
2023/07/27 08:23:59;;;;;;;1.88;0.47;;;;;;;25.25;42.78;100854.06;4917170;29;20071;-76
2023/07/27 08:26:29;;;;;;;1.88;0.43;;;;;;;25.29;44.45;100854.94;4916845;29;20056;-77
2023/07/27 08:28:57;;;;;;;4.32;0.50;;;;;;;25.33;43.47;100858.63;4916647;29;20056;-77
2023/07/27 08:31:26;;;;;;;1.48;0.63;;;;;;;25.42;42.82;100850.75;4916683;29;20075;-76
2023/07/27 08:33:54;;;;;;;2.05;0.60;;;;;;;25.42;43.49;100853.53;4916125;29;20060;-76
2023/07/27 08:36:23;;;;;;;0.50;0.30;;;;;;;25.49;43.36;100859.28;4917841;29;20399;-77
2023/07/27 08:38:51;;;;;;;1.65;0.65;;;;;;;25.62;42.94;100850.69;4916196;29;20511;-77
2023/07/27 08:41:20;;;;;;;0.95;0.40;;;;;;;25.67;43.86;100853.16;4914862;29;20052;-76
2023/07/27 08:43:50;;;;;;;0.75;0.70;;;;;;;25.67;42.11;100846.75;4914915;29;20063;-78
2023/07/27 08:46:20;;;;;;;0.30;0.30;;;;;;;25.64;41.65;100848.31;4915418;29;20489;-76
2023/07/27 08:48:49;;;;;;;2.83;0.60;;;;;;;25.66;42.63;100842.34;4914540;29;20436;-77
2023/07/27 08:51:18;;;;;;;0.63;0.50;;;;;;;25.63;40.91;100841.91;4915288;29;20083;-76
2023/07/27 08:53:47;;;;;;;0.98;0.52;;;;;;;25.52;39.72;100845.69;4914815;29;20440;-77
2023/07/27 08:56:16;;;;;;;0.63;0.35;;;;;;;25.47;41.31;100844.03;4915472;29;20051;-77
2023/07/27 08:58:44;;;;;;;0.77;0.52;;;;;;;25.55;40.38;100842.97;4896628;29;20053;-78
2023/07/27 09:01:13;;;;;;;1.17;0.40;;;;;;;25.76;40.77;100838.88;4897425;29;20052;-76
2023/07/27 09:03:43;;;;;;;0.32;0.32;;;;;;;25.97;40.71;100843.16;4901623;29;20064;-78
2023/07/27 09:06:12;;;;;;;1.20;0.65;;;;;;;26.12;41.58;100847.78;4898738;29;20403;-77
2023/07/27 09:08:41;;;;;;;0.30;0.30;;;;;;;26.14;39.12;100838.94;4915287;29;20079;-78
2023/07/27 09:11:10;;;;;;;1.30;0.60;;;;;;;26.13;40.28;100840.16;4899079;29;20051;-78
2023/07/27 09:13:39;;;;;;;1.02;0.60;;;;;;;26.06;39.60;100840.06;4915383;29;20056;-77
2023/07/27 09:16:08;;;;;;;0.77;0.40;;;;;;;26.08;41.88;100832.06;4915889;29;20052;-77
2023/07/27 09:18:38;;;;;;;0.40;0.40;;;;;;;26.07;41.13;100833.25;4916411;29;20052;-77
2023/07/27 09:21:10;;;;;;;3.03;0.50;;;;;;;25.86;38.70;100843.03;4915880;29;20056;-76
2023/07/27 09:23:39;;;;;;;1.30;0.65;;;;;;;25.98;39.25;100839.16;4915731;29;20052;-78
2023/07/27 09:26:07;;;;;;;0.75;0.50;;;;;;;25.99;39.70;100835.97;4915457;29;20055;-78
2023/07/27 09:28:35;;;;;;;0.88;0.30;;;;;;;26.08;38.89;100829.25;4914127;29;20049;-77
2023/07/27 09:31:03;;;;;;;0.60;0.60;;;;;;;26.24;39.69;100824.28;4915287;29;20048;-77
2023/07/27 09:33:32;;;;;;;0.65;0.52;;;;;;;26.38;39.46;100822.84;4914020;29;20052;-77
2023/07/27 09:36:03;;;;;;;1.98;0.50;;;;;;;26.44;38.99;100826.91;4914776;29;20052;-77
2023/07/27 09:38:31;;;;;;;1.13;0.50;;;;;;;26.46;39.55;100823.72;4915374;29;20052;-77
2023/07/27 09:41:07;;;;;;;0.60;0.60;;;;;;;26.66;38.73;100827.16;4915576;29;20052;-76
2023/07/27 09:43:38;;;;;;;1.42;0.50;;;;;;;26.67;38.95;100829.56;4915862;29;20052;-78
2023/07/27 09:46:07;;;;;;;0.52;0.43;;;;;;;26.83;37.92;100823.72;4915840;29;20056;-77
2023/07/27 09:48:37;;;;;;;0.70;0.52;;;;;;;26.73;38.17;100829.22;4915407;29;20059;-76
2023/07/27 09:51:07;;;;;;;0.70;0.43;;;;;;;26.87;37.95;100828.56;4914355;29;20059;-77
2023/07/27 09:53:37;;;;;;;0.77;0.50;;;;;;;26.79;37.26;100825.66;4914288;29;20403;-77
2023/07/27 09:56:06;;;;;;;0.95;0.60;;;;;;;26.98;39.00;100826.69;4916082;29;20411;-77
2023/07/27 09:58:36;;;;;;;0.60;0.60;;;;;;;26.94;38.62;100814.63;4918062;29;20052;-77
2023/07/27 10:01:05;;;;;;;0.95;0.60;;;;;;;26.83;37.56;100822.88;4917957;29;20411;-77
2023/07/27 10:03:33;;;;;;;0.40;0.40;;;;;;;27.09;38.29;100812.72;4919087;29;20404;-78
2023/07/27 10:06:03;;;;;;;0.77;0.77;;;;;;;27.20;38.01;100821.22;4918188;29;20048;-77
2023/07/27 10:08:35;;;;;;;0.47;0.30;;;;;;;27.17;37.63;100817.19;4918567;29;20056;-78
2023/07/27 10:11:03;;;;;;;1.23;0.50;;;;;;;27.22;37.64;100814.03;4918422;29;20075;-78
2023/07/27 10:13:41;;;;;;;2.50;0.55;;;;;;;27.32;37.91;100820.91;4917547;29;20059;-77
2023/07/27 10:16:11;;;;;;;0.68;0.40;;;;;;;27.39;37.95;100819.34;4901364;29;20051;-77
2023/07/27 10:18:48;;;;;;;0.77;0.55;;;;;;;27.50;38.27;100823.03;4917425;29;20147;-78
2023/07/27 10:21:27;;;;;;;1.20;0.60;;;;;;;27.48;38.42;100817.03;4916637;29;20063;-77
2023/07/27 10:24:01;;;;;;;3.67;0.57;;;;;;;27.61;39.33;100821.16;4915950;29;20048;-76
2023/07/27 10:26:52;;;;;;;2.50;0.57;;;;;;;27.74;39.62;100820.81;4915272;29;20079;-76
2023/07/27 10:29:23;;;;;;;0.85;0.57;;;;;;;27.77;38.13;100820.81;4914831;29;20052;-78
2023/07/27 10:32:11;;;;;;;1.08;0.65;;;;;;;27.87;39.99;100822.06;4917982;29;20056;-77
2023/07/27 10:34:39;;;;;;;1.60;0.60;;;;;;;27.71;38.62;100827.22;4918005;29;20064;-75
2023/07/27 10:37:15;;;;;;;0.55;0.47;;;;;;;27.75;39.56;100813.97;4915984;29;20433;-77
2023/07/27 10:39:51;;;;;;;0.43;0.35;;;;;;;27.74;39.25;100818.00;4918280;29;20059;-77
2023/07/27 10:42:25;;;;;;;0.30;0.30;;;;;;;27.67;38.82;100815.97;4917633;29;20067;-76
2023/07/27 10:44:56;;;;;;;0.57;0.32;;;;;;;27.54;38.38;100811.81;4916446;29;20052;-77
2023/07/27 10:47:26;;;;;;;1.13;0.60;;;;;;;27.33;39.57;100807.69;4917872;29;20060;-77
2023/07/27 10:49:57;;;;;;;0.45;0.45;;;;;;;27.47;39.61;100812.59;4906333;29;20083;-77
2023/07/27 10:52:37;;;;;;;1.73;1.33;;;;;;;27.48;40.52;100809.38;4912179;29;20052;-76
2023/07/27 10:55:07;;;;;;;0.70;0.50;;;;;;;27.54;41.35;100801.41;4908772;29;20106;-76
2023/07/27 10:57:35;;;;;;;1.75;0.50;;;;;;;27.71;40.57;100799.13;4915265;29;20070;-78
2023/07/27 11:00:04;;;;;;;1.25;0.50;;;;;;;27.74;40.33;100798.31;4917490;29;20056;-76
2023/07/27 11:02:33;;;;;;;0.95;0.70;;;;;;;27.95;42.88;100799.63;4916785;29;20048;-76
2023/07/27 11:05:07;;;;;;;1.38;0.30;;;;;;;28.11;40.66;100804.91;4914178;29;20407;-77
2023/07/27 11:07:39;;;;;;;0.98;0.80;;;;;;;27.84;39.78;100799.56;4914873;29;20060;-76
2023/07/27 11:10:13;;;;;;;0.55;0.43;;;;;;;27.87;41.27;100801.59;4911464;29;20063;-76
2023/07/27 11:12:48;;;;;;;;;;;;;;;27.94;41.63;100804.44;4898198;29;20059;-77
2023/07/27 11:15:21;;;;;;;0.75;0.68;;;;;;;28.13;40.79;100800.50;4898036;29;19927;-76
2023/07/27 11:17:55;;;;;;;1.10;0.73;;;;;;;28.19;40.72;100792.47;4913712;29;20404;-77
2023/07/27 11:20:27;;;;;;;1.38;0.75;;;;;;;28.20;41.41;100791.25;4917221;29;20518;-76
2023/07/27 11:23:08;;;;;;;1.17;0.65;;;;;;;28.25;41.50;100779.66;4916211;29;20059;-77
2023/07/27 11:25:38;;;;;;;3.85;0.73;;;;;;;28.28;42.54;100781.69;4916002;29;20048;-77
2023/07/27 11:28:08;;;;;;;0.57;0.52;;;;;;;28.32;40.46;100776.06;4913050;29;20048;-77
2023/07/27 11:30:36;;;;;;;0.60;0.50;;;;;;;28.34;40.37;100768.03;4908511;29;20044;-77
2023/07/27 11:33:05;;;;;;;1.90;0.45;;;;;;;28.39;41.28;100766.84;4915893;29;20067;-76
2023/07/27 11:35:44;;;;;;;0.47;0.45;;;;;;;28.43;40.65;100771.28;4914620;29;20055;-76
2023/07/27 11:38:14;;;;;;;1.23;0.50;;;;;;;28.64;40.91;100772.50;4909745;29;20045;-76